createdAt,value
2017-11-03T00:00:44.293Z,92.10
2017-11-03T00:03:11.852Z,92.20
2017-11-03T00:05:39.553Z,91.90
2017-11-03T00:08:07.068Z,91.60
2017-11-03T00:10:34.633Z,91.60
2017-11-03T00:13:02.329Z,91.70
2017-11-03T00:15:29.907Z,91.90
2017-11-03T00:17:57.612Z,91.60
2017-11-03T00:20:25.328Z,91.70
2017-11-03T00:22:53.079Z,91.90
2017-11-03T00:25:20.924Z,91.80
2017-11-03T00:27:48.559Z,91.80
2017-11-03T00:30:16.099Z,91.60
2017-11-03T00:32:43.613Z,91.60
2017-11-03T00:35:11.136Z,91.60
2017-11-03T00:37:38.681Z,91.60
2017-11-03T00:40:06.412Z,91.70
2017-11-03T00:42:33.957Z,91.60
2017-11-03T00:45:01.642Z,91.50
2017-11-03T00:47:29.283Z,91.40
2017-11-03T00:49:56.782Z,91.40
2017-11-03T00:52:24.301Z,91.50
2017-11-03T00:54:51.840Z,91.50
2017-11-03T00:57:19.394Z,91.50
2017-11-03T00:59:46.970Z,91.60
2017-11-03T01:02:14.527Z,91.50
2017-11-03T01:04:42.014Z,91.50
2017-11-03T01:07:09.572Z,91.50
2017-11-03T01:09:37.133Z,91.60
2017-11-03T01:12:04.753Z,91.60
2017-11-03T01:14:32.233Z,91.50
2017-11-03T01:16:59.811Z,91.50
2017-11-03T01:19:27.330Z,91.40
2017-11-03T01:21:54.832Z,91.50
2017-11-03T01:24:22.412Z,91.60
2017-11-03T01:26:49.975Z,91.60
2017-11-03T01:29:17.543Z,91.90
2017-11-03T01:31:45.041Z,91.60
2017-11-03T01:34:12.553Z,91.60
2017-11-03T01:36:40.048Z,91.80
2017-11-03T01:39:07.560Z,91.60
2017-11-03T01:41:43.295Z,91.60
2017-11-03T01:44:10.798Z,91.70
2017-11-03T01:46:52.950Z,91.70
2017-11-03T01:49:20.631Z,91.80
2017-11-03T01:51:48.156Z,91.80
2017-11-03T01:54:16.072Z,91.80
2017-11-03T01:56:43.826Z,91.70
2017-11-03T01:59:11.446Z,91.70
2017-11-03T02:01:38.955Z,91.70
2017-11-03T02:04:06.542Z,91.90
2017-11-03T02:06:34.037Z,91.80
2017-11-03T02:09:01.530Z,91.80
2017-11-03T02:11:29.025Z,91.90
2017-11-03T02:13:56.541Z,91.80
2017-11-03T02:16:24.013Z,91.80
2017-11-03T02:18:51.563Z,91.80
2017-11-03T02:21:19.046Z,91.90
2017-11-03T02:23:46.542Z,92.00
2017-11-03T02:26:14.048Z,91.60
2017-11-03T02:28:41.551Z,91.60
2017-11-03T02:31:09.035Z,91.60
2017-11-03T02:33:36.527Z,91.50
2017-11-03T02:36:04.043Z,91.60
2017-11-03T02:38:31.624Z,91.60
2017-11-03T02:40:59.107Z,91.60
2017-11-03T02:43:26.709Z,91.60
2017-11-03T02:45:54.287Z,91.60
2017-11-03T02:48:21.779Z,91.60
2017-11-03T02:50:49.312Z,91.60
2017-11-03T02:53:17.024Z,91.50
2017-11-03T02:55:44.555Z,91.50
2017-11-03T02:58:12.073Z,91.50
2017-11-03T03:00:39.578Z,91.60
2017-11-03T03:03:07.055Z,91.60
2017-11-03T03:05:34.569Z,91.60
2017-11-03T03:08:02.061Z,91.70
2017-11-03T03:10:29.585Z,91.60
2017-11-03T03:12:57.104Z,91.60
2017-11-03T03:15:24.622Z,91.40
2017-11-03T03:17:52.119Z,91.30
2017-11-03T03:20:19.843Z,91.20
2017-11-03T03:22:47.309Z,91.30
2017-11-03T03:25:14.803Z,91.30
2017-11-03T03:27:42.326Z,91.30
2017-11-03T03:30:09.819Z,91.30
2017-11-03T03:32:37.299Z,91.30
2017-11-03T03:35:04.837Z,91.30
2017-11-03T03:37:32.389Z,91.30
2017-11-03T03:39:59.890Z,91.40
2017-11-03T03:42:27.367Z,91.30
2017-11-03T03:44:54.914Z,91.20
2017-11-03T03:47:22.384Z,91.20
2017-11-03T03:49:49.931Z,91.30
2017-11-03T03:52:17.502Z,91.30
2017-11-03T03:54:45.078Z,91.20
2017-11-03T03:57:12.581Z,91.20
2017-11-03T03:59:40.451Z,91.20
2017-11-03T04:02:08.000Z,91.20
2017-11-03T04:04:35.547Z,91.10
2017-11-03T04:07:03.072Z,91.20
2017-11-03T04:09:30.638Z,91.20
2017-11-03T04:11:58.249Z,91.10
2017-11-03T04:14:25.805Z,91.10
2017-11-03T04:16:53.391Z,91.10
2017-11-03T04:19:21.017Z,91.10
2017-11-03T04:21:48.670Z,91.10
2017-11-03T04:24:16.822Z,91.00
2017-11-03T04:26:44.609Z,91.10
2017-11-03T04:29:12.354Z,91.20
2017-11-03T04:31:39.971Z,91.30
2017-11-03T04:34:07.716Z,91.30
2017-11-03T04:36:35.383Z,91.40
2017-11-03T04:39:03.204Z,91.40
2017-11-03T04:41:31.096Z,91.30
2017-11-03T04:43:58.885Z,91.20
2017-11-03T04:46:26.672Z,91.10
2017-11-03T04:48:54.437Z,91.20
2017-11-03T04:51:22.151Z,91.20
2017-11-03T04:53:49.775Z,91.20
2017-11-03T04:56:17.550Z,91.30
2017-11-03T04:58:45.242Z,91.50
2017-11-03T05:01:13.024Z,91.60
2017-11-03T05:03:40.787Z,91.70
2017-11-03T05:06:08.605Z,91.70
2017-11-03T05:08:36.834Z,91.80
2017-11-03T05:11:04.517Z,91.90
2017-11-03T05:13:32.138Z,92.00
2017-11-03T05:15:59.886Z,91.90
2017-11-03T05:18:27.705Z,91.90
2017-11-03T05:20:55.428Z,91.90
2017-11-03T05:23:22.937Z,92.00
2017-11-03T05:25:52.007Z,91.80
2017-11-03T05:28:21.635Z,91.60
2017-11-03T05:30:50.091Z,91.70
2017-11-03T05:33:17.844Z,91.60
2017-11-03T05:35:45.435Z,91.60
2017-11-03T05:38:13.145Z,91.60
2017-11-03T05:40:40.941Z,91.80
2017-11-03T05:43:08.575Z,91.90
2017-11-03T05:45:36.545Z,91.50
2017-11-03T05:48:04.548Z,91.40
2017-11-03T05:50:32.844Z,91.20
2017-11-03T05:53:00.557Z,91.40
2017-11-03T05:55:28.692Z,91.60
2017-11-03T05:57:56.386Z,92.30
2017-11-03T06:00:26.679Z,92.70
2017-11-03T06:02:54.644Z,92.60
2017-11-03T06:05:24.772Z,92.80
2017-11-03T06:07:53.355Z,92.70
2017-11-03T06:10:21.251Z,92.70
2017-11-03T06:12:50.220Z,93.00
2017-11-03T06:15:35.124Z,92.90
2017-11-03T06:18:02.874Z,92.90
2017-11-03T06:20:30.669Z,93.10
2017-11-03T06:22:58.362Z,93.00
2017-11-03T06:25:26.329Z,93.00
2017-11-03T06:27:53.870Z,93.00
2017-11-03T06:30:21.477Z,93.00
2017-11-03T06:32:49.752Z,92.90
2017-11-03T06:35:18.860Z,93.00
2017-11-03T06:37:47.712Z,93.00
2017-11-03T06:40:15.308Z,93.10
2017-11-03T06:42:43.029Z,93.20
2017-11-03T06:45:10.972Z,93.20
2017-11-03T06:47:38.604Z,93.30
2017-11-03T06:50:06.122Z,93.50
2017-11-03T06:52:33.680Z,93.50
2017-11-03T06:55:01.225Z,93.50
2017-11-03T06:57:28.968Z,93.40
2017-11-03T06:59:57.384Z,93.20
2017-11-03T07:02:24.925Z,93.20
2017-11-03T07:04:52.755Z,93.00
2017-11-03T07:07:20.316Z,92.80
2017-11-03T07:09:47.826Z,92.80
2017-11-03T07:12:15.384Z,92.60
2017-11-03T07:14:42.941Z,92.60
2017-11-03T07:17:10.496Z,92.60
2017-11-03T07:19:38.091Z,92.60
2017-11-03T07:22:05.607Z,92.60
2017-11-03T07:24:33.122Z,92.50
2017-11-03T07:27:00.635Z,92.40
2017-11-03T07:29:28.993Z,92.50
2017-11-03T07:31:56.527Z,92.00
2017-11-03T07:34:24.076Z,92.00
2017-11-03T07:36:51.611Z,92.10
2017-11-03T07:39:19.099Z,92.00
2017-11-03T07:41:46.699Z,92.00
2017-11-03T07:44:14.268Z,92.10
2017-11-03T07:46:41.885Z,92.10
2017-11-03T07:49:09.567Z,92.00
2017-11-03T07:51:37.356Z,91.80
2017-11-03T07:54:05.116Z,91.70
2017-11-03T07:56:32.876Z,91.60
2017-11-03T07:59:01.025Z,91.60
2017-11-03T08:01:28.693Z,91.60
2017-11-03T08:03:56.271Z,91.60
2017-11-03T08:09:32.707Z,90.90
2017-11-03T08:12:19.665Z,90.70
2017-11-03T08:27:16.751Z,90.60
2017-11-03T08:29:47.629Z,90.60
2017-11-03T08:32:39.043Z,90.50
2017-11-03T08:47:31.094Z,90.10
2017-11-03T08:49:59.706Z,90.10
2017-11-03T08:52:27.214Z,90.10
2017-11-03T08:54:54.847Z,90.00
2017-11-03T08:57:22.477Z,89.70
2017-11-03T08:59:50.238Z,89.70
2017-11-03T09:02:17.759Z,89.60
2017-11-03T09:04:45.331Z,89.10
2017-11-03T09:07:13.904Z,89.60
2017-11-03T09:09:41.483Z,89.30
2017-11-03T09:12:09.169Z,89.10
2017-11-03T09:14:36.683Z,89.20
2017-11-03T09:17:04.654Z,89.30
2017-11-03T09:19:44.474Z,89.30
2017-11-03T09:22:17.549Z,89.40
2017-11-03T09:24:53.634Z,89.50
2017-11-03T09:27:28.419Z,89.70
2017-11-03T09:32:37.159Z,89.40
2017-11-03T09:43:22.804Z,89.70
2017-11-03T09:48:48.642Z,89.30
2017-11-03T10:02:34.814Z,89.50
2017-11-03T10:05:02.665Z,88.80
2017-11-03T10:07:30.275Z,88.70
2017-11-03T10:09:57.905Z,88.50
2017-11-03T10:12:25.686Z,88.90
2017-11-03T10:14:53.378Z,88.60
2017-11-03T10:17:21.069Z,88.50
2017-11-03T10:19:48.981Z,88.50
2017-11-03T10:22:16.718Z,88.30
2017-11-03T10:24:44.401Z,87.90
2017-11-03T10:27:11.988Z,87.40
2017-11-03T10:29:39.907Z,87.40
2017-11-03T10:32:07.391Z,86.80
2017-11-03T10:34:34.999Z,86.60
2017-11-03T10:37:02.499Z,86.60
2017-11-03T10:39:31.155Z,86.80
2017-11-03T10:41:58.694Z,86.80
2017-11-03T10:44:26.325Z,86.60
2017-11-03T10:46:53.883Z,86.10
2017-11-03T10:49:21.903Z,86.40
2017-11-03T10:51:49.734Z,86.00
2017-11-03T10:54:19.541Z,87.00
2017-11-03T10:56:47.131Z,87.00
2017-11-03T10:59:14.710Z,87.20
2017-11-03T11:01:42.262Z,87.40
2017-11-03T11:04:10.570Z,86.50
2017-11-03T11:06:38.091Z,86.10
2017-11-03T11:09:06.500Z,86.20
2017-11-03T11:11:34.129Z,86.50
2017-11-03T11:14:01.643Z,86.20
2017-11-03T11:16:31.852Z,85.90
2017-11-03T11:18:59.532Z,85.90
2017-11-03T11:21:27.151Z,86.10
2017-11-03T11:23:54.671Z,86.20
2017-11-03T11:26:22.231Z,86.40
2017-11-03T11:28:49.746Z,86.20
2017-11-03T11:31:17.242Z,86.10
2017-11-03T11:33:44.889Z,86.10
2017-11-03T11:36:12.691Z,85.80
2017-11-03T11:38:40.206Z,85.60
2017-11-03T11:41:07.806Z,84.70
2017-11-03T11:43:35.416Z,85.10
2017-11-03T11:46:02.991Z,85.40
2017-11-03T11:48:30.683Z,85.10
2017-11-03T11:50:58.246Z,85.10
2017-11-03T11:53:25.759Z,84.90
2017-11-03T11:55:53.692Z,84.70
2017-11-03T11:58:21.348Z,84.40
2017-11-03T12:00:49.011Z,84.60
2017-11-03T12:03:17.410Z,85.10
2017-11-03T12:05:45.086Z,85.10
2017-11-03T12:08:12.613Z,85.30
2017-11-03T12:10:40.264Z,84.70
2017-11-03T12:13:07.901Z,85.10
2017-11-03T12:15:35.416Z,85.10
2017-11-03T12:18:03.009Z,85.30
2017-11-03T12:20:30.584Z,85.00
2017-11-03T12:22:58.116Z,85.00
2017-11-03T12:25:25.664Z,85.30
2017-11-03T12:27:53.220Z,84.70
2017-11-03T12:30:20.841Z,84.60
2017-11-03T12:32:48.420Z,84.80
2017-11-03T12:35:16.054Z,84.60
2017-11-03T12:37:43.569Z,85.40
2017-11-03T12:40:11.125Z,85.00
2017-11-03T12:42:38.685Z,84.20
2017-11-03T12:45:06.237Z,84.00
2017-11-03T12:47:33.814Z,84.00
2017-11-03T12:50:01.423Z,83.50
2017-11-03T12:52:28.934Z,84.00
2017-11-03T12:54:57.492Z,82.80
2017-11-03T12:57:25.092Z,82.60
2017-11-03T12:59:52.883Z,83.00
2017-11-03T13:02:20.448Z,83.40
2017-11-03T13:04:48.105Z,83.30
2017-11-03T13:07:15.607Z,83.20
2017-11-03T13:09:43.112Z,83.60
2017-11-03T13:12:11.526Z,83.60
2017-11-03T13:14:39.108Z,83.40
2017-11-03T13:17:06.631Z,83.90
2017-11-03T13:19:35.192Z,84.40
2017-11-03T13:22:02.856Z,84.30
2017-11-03T13:24:30.705Z,84.40
2017-11-03T13:26:58.386Z,83.90
2017-11-03T13:29:25.901Z,84.20
2017-11-03T13:31:53.459Z,84.40
2017-11-03T13:34:21.159Z,83.60
2017-11-03T13:36:48.795Z,83.60
2017-11-03T13:39:16.402Z,83.30
2017-11-03T13:41:44.127Z,83.10
2017-11-03T13:44:11.803Z,83.10
2017-11-03T13:46:39.384Z,83.70
2017-11-03T13:49:06.990Z,83.30
2017-11-03T13:51:34.596Z,83.20
2017-11-03T13:54:02.348Z,83.40
2017-11-03T13:56:30.102Z,83.70
2017-11-03T13:58:57.827Z,83.60
2017-11-03T14:01:25.480Z,83.00
2017-11-03T14:03:53.003Z,83.20
2017-11-03T14:06:20.595Z,82.60
2017-11-03T14:08:48.330Z,83.00
2017-11-03T14:11:16.676Z,82.70
2017-11-03T14:13:44.284Z,82.80
2017-11-03T14:16:12.067Z,83.10
2017-11-03T14:18:39.929Z,83.10
2017-11-03T14:21:07.700Z,82.90
2017-11-03T14:23:35.252Z,83.60
2017-11-03T14:26:02.912Z,83.40
2017-11-03T14:28:30.872Z,83.60
2017-11-03T14:30:59.492Z,83.10
2017-11-03T14:33:27.036Z,83.30
2017-11-03T14:35:54.712Z,83.70
2017-11-03T14:38:22.430Z,83.70
2017-11-03T14:40:50.205Z,83.60
2017-11-03T14:43:18.155Z,83.40
2017-11-03T14:45:45.876Z,83.50
2017-11-03T14:48:13.416Z,83.90
2017-11-03T14:50:40.947Z,83.70
2017-11-03T14:53:08.520Z,83.40
2017-11-03T14:55:36.148Z,83.80
2017-11-03T14:58:03.699Z,83.90
2017-11-03T15:00:31.266Z,84.00
2017-11-03T15:02:58.909Z,84.10
2017-11-03T15:05:26.533Z,84.30
2017-11-03T15:07:54.895Z,85.00
2017-11-03T15:10:23.284Z,85.00
2017-11-03T15:12:50.819Z,84.90
2017-11-03T15:15:18.470Z,85.50
2017-11-03T15:17:46.019Z,85.40
2017-11-03T15:20:13.855Z,85.40
2017-11-03T15:22:41.421Z,85.60
2017-11-03T15:25:09.033Z,85.70
2017-11-03T15:27:37.399Z,86.30
2017-11-03T15:30:05.785Z,86.10
2017-11-03T15:32:33.546Z,86.20
2017-11-03T15:35:02.387Z,85.80
2017-11-03T15:37:30.089Z,86.00
2017-11-03T15:39:58.660Z,86.20
2017-11-03T15:42:27.271Z,86.10
2017-11-03T15:45:07.074Z,86.50
2017-11-03T15:47:34.634Z,86.40
2017-11-03T15:50:02.344Z,86.70
2017-11-03T15:52:30.732Z,87.20
2017-11-03T15:54:58.875Z,87.10
2017-11-03T15:57:26.432Z,87.50
2017-11-03T15:59:54.497Z,87.50
2017-11-03T16:02:22.127Z,87.20
2017-11-03T16:04:49.856Z,87.20
2017-11-03T16:07:17.811Z,87.40
2017-11-03T16:09:45.689Z,87.30
2017-11-03T16:12:13.442Z,87.70
2017-11-03T16:14:41.133Z,88.00
2017-11-03T16:17:08.845Z,88.00
2017-11-03T16:19:36.733Z,87.50
2017-11-03T16:22:04.553Z,87.80
2017-11-03T16:24:32.352Z,88.40
2017-11-03T16:27:00.373Z,88.40
2017-11-03T16:29:28.141Z,88.20
2017-11-03T16:31:56.901Z,88.90
2017-11-03T16:34:24.781Z,88.30
2017-11-03T16:36:52.496Z,88.20
2017-11-03T16:39:20.318Z,88.80
2017-11-03T16:41:47.956Z,88.00
2017-11-03T16:44:15.838Z,88.30
2017-11-03T16:46:43.785Z,88.20
2017-11-03T16:49:11.640Z,88.40
2017-11-03T16:51:39.420Z,88.40
2017-11-03T16:54:09.075Z,88.20
2017-11-03T16:56:36.866Z,88.10
2017-11-03T16:59:04.465Z,88.30
2017-11-03T17:01:32.050Z,88.50
2017-11-03T17:03:59.583Z,88.80
2017-11-03T17:06:27.209Z,88.40
2017-11-03T17:08:54.705Z,88.50
2017-11-03T17:11:23.149Z,88.50
2017-11-03T17:13:50.656Z,88.50
2017-11-03T17:16:19.891Z,88.10
2017-11-03T17:18:47.388Z,88.10
2017-11-03T17:21:15.011Z,88.00
2017-11-03T17:23:42.552Z,88.30
2017-11-03T17:26:10.087Z,88.30
2017-11-03T17:28:37.537Z,88.20
2017-11-03T17:31:05.046Z,87.80
2017-11-03T17:33:32.583Z,87.70
2017-11-03T17:36:00.119Z,87.80
2017-11-03T17:38:27.651Z,87.80
2017-11-03T17:40:55.227Z,88.10
2017-11-03T17:43:22.753Z,88.30
2017-11-03T17:45:50.853Z,88.40
2017-11-03T17:48:18.467Z,88.60
2017-11-03T17:50:59.259Z,88.80
2017-11-03T18:05:47.820Z,90.20
2017-11-03T19:30:30.946Z,90.50
2017-11-03T19:32:59.446Z,84.80
2017-11-03T19:35:28.024Z,84.90
2017-11-03T19:37:55.742Z,85.00
2017-11-03T19:40:24.388Z,85.20
2017-11-03T19:42:52.415Z,85.50
2017-11-03T19:45:20.092Z,85.70
2017-11-03T19:47:48.765Z,86.20
2017-11-03T19:50:16.513Z,86.40
2017-11-03T19:52:44.116Z,86.40
2017-11-03T19:55:12.789Z,86.60
2017-11-03T19:57:40.625Z,86.40
2017-11-03T20:00:09.326Z,86.40
2017-11-03T20:02:37.043Z,86.10
2017-11-03T20:05:06.614Z,86.30
2017-11-03T20:07:34.301Z,86.20
2017-11-03T20:10:02.927Z,85.90
2017-11-03T20:12:30.442Z,87.10
2017-11-03T20:14:58.292Z,86.80
2017-11-03T20:17:25.870Z,86.80
2017-11-03T20:19:53.380Z,87.10
2017-11-03T20:22:21.022Z,87.00
2017-11-03T20:24:48.593Z,87.30
2017-11-03T20:27:16.294Z,87.00
2017-11-03T20:29:47.144Z,86.80
2017-11-03T20:32:14.856Z,86.80
2017-11-03T20:34:42.639Z,86.70
2017-11-03T20:37:10.278Z,86.90
2017-11-03T20:39:37.953Z,86.70
2017-11-03T20:42:06.023Z,87.00
2017-11-03T20:44:37.396Z,87.40
2017-11-03T20:47:05.038Z,87.60
2017-11-03T20:49:33.202Z,87.50
2017-11-03T20:52:00.878Z,87.70
2017-11-03T20:54:29.381Z,87.90
2017-11-03T20:56:56.954Z,87.80
2017-11-03T20:59:24.960Z,87.70
2017-11-03T21:01:52.489Z,87.30
2017-11-03T21:04:20.041Z,87.50
2017-11-03T21:06:47.608Z,87.20
2017-11-03T21:09:15.206Z,87.30
2017-11-03T21:11:42.720Z,87.30
2017-11-03T21:14:10.273Z,87.50
2017-11-03T21:16:37.887Z,87.80
2017-11-03T21:19:09.143Z,88.00
2017-11-03T21:21:36.792Z,87.90
2017-11-03T21:24:04.498Z,87.80
2017-11-03T21:26:32.119Z,87.90
2017-11-03T21:28:59.778Z,88.10
2017-11-03T21:31:27.378Z,88.10
2017-11-03T21:33:54.940Z,88.40
2017-11-03T21:36:22.778Z,88.50
2017-11-03T21:38:54.738Z,88.50
2017-11-03T21:41:22.542Z,88.70
2017-11-03T21:43:50.404Z,88.40
2017-11-03T21:46:18.588Z,88.50
2017-11-03T21:48:46.205Z,88.40
2017-11-03T21:51:13.848Z,88.60
2017-11-03T21:53:41.410Z,88.80
2017-11-03T21:56:09.194Z,89.00
2017-11-03T21:58:37.488Z,88.80
2017-11-03T22:01:05.288Z,88.70
2017-11-03T22:03:33.550Z,88.80
2017-11-03T22:06:01.400Z,88.90
2017-11-03T22:08:28.933Z,89.00
2017-11-03T22:10:58.112Z,89.00
2017-11-03T22:13:25.797Z,89.10
2017-11-03T22:15:53.390Z,89.00
2017-11-03T22:18:20.923Z,89.20
2017-11-03T22:20:48.535Z,89.40
2017-11-03T22:23:16.134Z,89.60
2017-11-03T22:25:43.686Z,89.60
2017-11-03T22:28:11.180Z,89.80
2017-11-03T22:30:39.639Z,89.70
2017-11-03T22:33:07.107Z,89.90
2017-11-03T22:35:35.782Z,90.00
2017-11-03T22:38:03.356Z,90.00
2017-11-03T22:40:30.907Z,90.10
2017-11-03T22:42:58.497Z,90.10
2017-11-03T22:45:26.103Z,90.10
2017-11-03T22:47:53.752Z,90.10
2017-11-03T22:50:21.251Z,90.10
2017-11-03T22:52:48.804Z,90.20
2017-11-03T22:55:16.489Z,90.30
2017-11-03T22:57:44.015Z,90.00
2017-11-03T23:00:11.897Z,90.10
2017-11-03T23:02:39.772Z,90.00
2017-11-03T23:05:07.300Z,90.10
2017-11-03T23:07:34.794Z,90.10
2017-11-03T23:10:02.327Z,90.20
2017-11-03T23:12:30.239Z,90.00
2017-11-03T23:14:57.767Z,90.10
2017-11-03T23:17:25.296Z,90.20
2017-11-03T23:19:52.829Z,90.30
2017-11-03T23:22:20.590Z,90.30
2017-11-03T23:24:49.138Z,90.30
2017-11-03T23:27:16.740Z,90.20
2017-11-03T23:29:45.760Z,90.30
2017-11-03T23:32:13.335Z,90.30
2017-11-03T23:34:40.894Z,90.20
2017-11-03T23:37:10.062Z,90.30
2017-11-03T23:39:37.577Z,90.30
2017-11-03T23:42:05.094Z,90.30
2017-11-03T23:44:32.592Z,90.30
2017-11-03T23:47:00.339Z,90.50
2017-11-03T23:49:27.898Z,90.50
2017-11-03T23:51:55.768Z,90.50
2017-11-03T23:54:23.338Z,90.40
2017-11-03T23:56:50.955Z,90.40
2017-11-03T23:59:18.745Z,90.30
